Time;durP1;ratioP1;P1;durP2;ratioP2;P2;SDS_P1;SDS_P2;PMS_P1;PMS_P2;Temp;Humidity;BMP_temperature;BMP_pressure;BME280_temperature;BME280_humidity;BME280_pressure;Samples;Min_cycle;Max_cycle;Signal;HPM_P1;HPM_P2
2021/06/22 00:01:10;;;;;;;1.15;0.75;;;21.60;94.20;;;;;;4246119;27;20505;-73
2021/06/22 00:03:13;;;;;;;2.75;1.00;;;21.70;94.00;;;;;;4246120;27;20059;-73
2021/06/22 00:05:19;;;;;;;2.20;1.27;;;21.70;94.10;;;;;;4245577;27;20124;-73
2021/06/22 00:07:23;;;;;;;2.45;0.93;;;21.70;94.10;;;;;;4247158;27;20476;-73
2021/06/22 00:09:26;;;;;;;3.25;1.40;;;21.70;94.10;;;;;;4243614;27;20051;-73
2021/06/22 00:11:29;;;;;;;1.25;0.80;;;21.70;94.00;;;;;;4249609;27;20449;-73
2021/06/22 00:13:32;;;;;;;3.88;1.20;;;21.70;94.10;;;;;;4250484;27;20059;-74
2021/06/22 00:15:35;;;;;;;2.25;1.05;;;21.70;94.20;;;;;;4248545;27;20055;-73
2021/06/22 00:17:39;;;;;;;1.70;0.70;;;21.70;94.20;;;;;;4247336;27;20066;-72
2021/06/22 00:19:42;;;;;;;2.10;1.00;;;21.60;94.70;;;;;;4245811;27;20127;-73
2021/06/22 00:21:46;;;;;;;1.70;0.88;;;21.60;95.00;;;;;;4246472;27;20070;-74
2021/06/22 00:23:49;;;;;;;1.95;0.93;;;21.70;94.90;;;;;;4246633;27;20092;-73
2021/06/22 00:25:52;;;;;;;4.63;1.20;;;21.60;94.70;;;;;;4246764;27;20051;-73
2021/06/22 00:27:56;;;;;;;2.83;1.05;;;21.60;95.40;;;;;;4246144;27;20051;-73
2021/06/22 00:29:59;;;;;;;2.03;0.90;;;21.50;95.70;;;;;;4245900;27;20047;-74
2021/06/22 00:32:02;;;;;;;4.38;1.10;;;21.60;95.20;;;;;;4245452;27;20063;-72
2021/06/22 00:34:05;;;;;;;2.47;1.48;;;21.40;96.10;;;;;;4228449;27;20062;-73
2021/06/22 00:36:09;;;;;;;1.83;1.40;;;21.40;97.20;;;;;;4249392;27;20055;-73
2021/06/22 00:38:13;;;;;;;2.63;1.65;;;21.10;98.40;;;;;;4249525;27;20258;-75
2021/06/22 00:40:16;;;;;;;3.33;1.42;;;20.70;98.90;;;;;;4249694;27;20632;-73
2021/06/22 00:42:19;;;;;;;4.68;1.42;;;20.80;99.40;;;;;;4249503;27;20210;-73
2021/06/22 00:44:22;;;;;;;3.85;1.40;;;20.70;99.60;;;;;;4249325;27;20634;-73
2021/06/22 00:46:25;;;;;;;3.67;1.73;;;20.80;99.30;;;;;;4249367;27;20392;-72
2021/06/22 00:48:28;;;;;;;2.63;1.77;;;20.90;99.20;;;;;;4248803;27;20129;-73
2021/06/22 00:50:31;;;;;;;1.98;1.60;;;20.90;99.10;;;;;;4247266;27;20195;-73
2021/06/22 00:52:37;;;;;;;5.55;2.20;;;20.90;99.20;;;;;;4248784;27;20058;-73
2021/06/22 00:54:41;;;;;;;2.67;2.05;;;21.00;98.80;;;;;;4238228;27;20051;-74
2021/06/22 00:56:45;;;;;;;2.97;2.40;;;20.90;99.60;;;;;;4249092;27;20059;-73
2021/06/22 00:58:48;;;;;;;2.75;2.00;;;20.60;99.90;;;;;;4255514;27;20046;-72
2021/06/22 01:00:51;;;;;;;3.55;2.10;;;20.60;99.90;;;;;;4251401;27;20058;-73
2021/06/22 01:02:55;;;;;;;5.55;1.95;;;20.70;99.90;;;;;;4248951;27;20074;-72
2021/06/22 01:04:58;;;;;;;4.97;1.90;;;20.80;99.90;;;;;;4237211;27;20047;-72
2021/06/22 01:07:02;;;;;;;4.10;1.65;;;20.80;99.90;;;;;;4249057;27;20488;-73
2021/06/22 01:09:06;;;;;;;8.25;2.58;;;20.90;99.70;;;;;;4248509;27;20078;-73
2021/06/22 01:11:11;;;;;;;8.68;2.20;;;20.90;99.90;;;;;;4248630;27;20412;-73
2021/06/22 01:13:14;;;;;;;4.72;2.60;;;20.80;99.90;;;;;;4248604;27;20047;-73
2021/06/22 01:15:19;;;;;;;5.80;3.08;;;20.60;99.90;;;;;;4248813;27;20111;-73
2021/06/22 01:17:23;;;;;;;7.85;3.35;;;20.50;99.90;;;;;;4252830;27;20112;-73
2021/06/22 01:19:26;;;;;;;8.98;3.50;;;20.60;99.90;;;;;;4252220;27;20055;-72
2021/06/22 01:21:32;;;;;;;4.70;3.88;;;20.50;99.90;;;;;;4234308;27;20109;-73
2021/06/22 01:23:35;;;;;;;8.80;3.83;;;20.60;99.90;;;;;;4248668;27;20047;-73
2021/06/22 01:25:39;;;;;;;12.07;5.32;;;20.40;99.90;;;;;;4248642;27;20607;-73
2021/06/22 01:27:43;;;;;;;8.75;5.78;;;20.30;99.90;;;;;;4248785;27;20058;-74
2021/06/22 01:29:46;;;;;;;7.57;6.28;;;20.40;99.90;;;;;;4248327;27;20103;-73
2021/06/22 01:31:51;;;;;;;13.07;6.07;;;20.50;99.90;;;;;;4248461;27;20051;-74
2021/06/22 01:33:54;;;;;;;6.93;6.00;;;20.40;99.90;;;;;;4248558;27;20399;-72
2021/06/22 01:35:57;;;;;;;6.90;6.20;;;20.40;99.90;;;;;;4248663;27;20128;-73
2021/06/22 01:38:05;;;;;;;7.88;5.82;;;20.50;99.90;;;;;;4248546;27;20059;-74
2021/06/22 01:40:09;;;;;;;6.82;6.13;;;20.60;99.90;;;;;;4248628;27;20066;-73
2021/06/22 01:42:12;;;;;;;6.57;5.90;;;20.70;99.90;;;;;;4249387;27;20063;-72
2021/06/22 01:44:17;;;;;;;8.60;6.22;;;20.80;99.90;;;;;;4249322;27;20050;-73
2021/06/22 01:46:20;;;;;;;10.77;7.90;;;20.90;99.90;;;;;;4237011;27;20062;-72
2021/06/22 01:48:24;;;;;;;10.30;9.30;;;20.60;99.90;;;;;;4248381;27;20060;-73
2021/06/22 01:50:27;;;;;;;10.10;9.05;;;20.40;99.90;;;;;;4247676;27;20051;-74
2021/06/22 01:52:31;;;;;;;13.48;8.55;;;20.40;99.90;;;;;;4247923;27;20051;-72
2021/06/22 01:54:35;;;;;;;10.50;8.75;;;20.40;99.90;;;;;;4248054;27;20047;-73
2021/06/22 01:56:41;;;;;;;12.63;11.32;;;20.30;99.90;;;;;;4248441;27;20613;-72
2021/06/22 01:58:44;;;;;;;14.40;9.93;;;20.20;99.90;;;;;;4247834;27;20044;-72
2021/06/22 02:00:49;;;;;;;13.15;9.65;;;20.20;99.90;;;;;;4247711;27;20104;-73
2021/06/22 02:02:52;;;;;;;10.70;8.55;;;20.20;99.90;;;;;;4248228;27;20142;-73
2021/06/22 02:04:57;;;;;;;8.95;8.05;;;20.20;99.90;;;;;;4247711;27;20048;-73
2021/06/22 02:07:00;;;;;;;13.48;7.65;;;20.10;99.90;;;;;;4247986;27;20051;-73
2021/06/22 02:09:04;;;;;;;7.68;6.95;;;20.40;99.90;;;;;;4247905;27;20055;-72
2021/06/22 02:11:09;;;;;;;13.32;7.30;;;20.40;99.90;;;;;;4247333;27;20564;-72
2021/06/22 02:13:13;;;;;;;8.25;7.32;;;20.30;99.90;;;;;;4247542;27;20396;-73
2021/06/22 02:15:17;;;;;;;11.13;7.70;;;20.40;99.90;;;;;;4247522;27;20112;-73
2021/06/22 02:17:20;;;;;;;10.88;7.65;;;20.20;99.90;;;;;;4247459;27;20055;-72
2021/06/22 02:19:24;;;;;;;9.35;7.70;;;20.30;99.90;;;;;;4247759;27;20121;-74
2021/06/22 02:21:27;;;;;;;10.30;7.82;;;20.20;99.90;;;;;;4229405;27;20056;-72
2021/06/22 02:23:30;;;;;;;9.50;8.02;;;20.10;99.90;;;;;;4247448;27;20384;-73
2021/06/22 02:25:33;;;;;;;10.02;7.93;;;20.20;99.90;;;;;;4247452;27;20399;-72
2021/06/22 02:27:39;;;;;;;9.90;7.47;;;20.20;99.90;;;;;;4247763;27;20522;-72
2021/06/22 02:29:42;;;;;;;8.70;7.80;;;20.40;99.90;;;;;;4230786;28;20056;-72
2021/06/22 02:31:46;;;;;;;11.20;7.60;;;20.40;99.90;;;;;;4251505;27;20050;-73
2021/06/22 02:33:49;;;;;;;12.35;7.85;;;20.50;99.90;;;;;;4250792;27;20058;-73
2021/06/22 02:35:52;;;;;;;12.80;8.45;;;20.50;99.90;;;;;;4250494;27;20549;-74
2021/06/22 02:37:55;;;;;;;11.30;7.32;;;20.50;99.90;;;;;;4248156;27;20050;-73
2021/06/22 02:39:58;;;;;;;8.35;7.50;;;20.60;99.90;;;;;;4247031;27;20057;-72
2021/06/22 02:42:02;;;;;;;11.77;7.47;;;20.70;99.90;;;;;;4246944;27;20104;-73
2021/06/22 02:44:06;;;;;;;8.88;7.47;;;20.80;99.90;;;;;;4247509;27;20059;-73
2021/06/22 02:46:10;;;;;;;11.23;8.55;;;20.80;99.90;;;;;;4247636;27;20524;-72
2021/06/22 02:48:13;;;;;;;9.63;7.90;;;20.40;99.90;;;;;;4247518;27;20047;-72
2021/06/22 02:50:19;;;;;;;11.88;8.30;;;20.20;99.90;;;;;;4248968;27;20055;-72
2021/06/22 02:52:22;;;;;;;9.30;8.40;;;20.10;99.90;;;;;;4251418;27;20051;-72
2021/06/22 02:54:25;;;;;;;8.77;7.80;;;20.10;99.90;;;;;;4255736;27;20560;-74
2021/06/22 02:56:28;;;;;;;11.40;7.63;;;20.10;99.90;;;;;;4236686;28;20076;-74
2021/06/22 02:58:31;;;;;;;11.00;7.90;;;20.10;99.90;;;;;;4252716;27;20047;-73
2021/06/22 03:00:36;;;;;;;9.05;8.13;;;20.00;99.90;;;;;;4264422;27;20050;-73
2021/06/22 03:02:39;;;;;;;15.77;7.72;;;20.00;99.90;;;;;;4252058;27;20078;-73
2021/06/22 03:04:43;;;;;;;10.93;7.88;;;20.00;99.90;;;;;;4247386;27;20051;-72
2021/06/22 03:06:46;;;;;;;10.00;7.90;;;20.00;99.90;;;;;;4246837;27;20054;-72
2021/06/22 03:08:49;;;;;;;13.90;8.43;;;20.10;99.90;;;;;;4247061;27;20450;-72
2021/06/22 03:10:52;;;;;;;10.98;7.43;;;20.00;99.90;;;;;;4228878;28;20519;-72
2021/06/22 03:12:55;;;;;;;9.05;8.15;;;19.90;99.90;;;;;;4246392;27;20122;-73
2021/06/22 03:14:58;;;;;;;8.65;7.78;;;19.70;99.90;;;;;;4246664;27;20055;-73
2021/06/22 03:17:03;;;;;;;10.73;8.07;;;19.60;99.90;;;;;;4246695;27;20062;-73
2021/06/22 03:19:06;;;;;;;8.90;7.47;;;19.60;99.90;;;;;;4246752;27;20062;-72
2021/06/22 03:21:09;;;;;;;10.05;7.18;;;19.70;99.90;;;;;;4246773;27;20066;-72
2021/06/22 03:23:12;;;;;;;10.25;7.07;;;19.70;99.90;;;;;;4246387;27;20047;-72
2021/06/22 03:25:16;;;;;;;12.20;7.53;;;19.90;99.90;;;;;;4248303;27;20465;-72
2021/06/22 03:27:19;;;;;;;11.43;7.93;;;19.90;99.90;;;;;;4247028;27;20116;-72
2021/06/22 03:29:23;;;;;;;11.65;7.40;;;19.80;99.90;;;;;;4225573;27;20101;-72
2021/06/22 03:31:26;;;;;;;12.20;6.88;;;19.90;99.90;;;;;;4246885;27;20055;-72
2021/06/22 03:33:31;;;;;;;11.38;8.02;;;19.80;99.90;;;;;;4246686;27;20042;-72
2021/06/22 03:35:34;;;;;;;10.20;9.15;;;19.80;99.90;;;;;;4246631;27;20059;-73
2021/06/22 03:37:38;;;;;;;12.23;8.93;;;19.80;99.90;;;;;;4246313;27;20062;-71
2021/06/22 03:39:41;;;;;;;15.90;8.35;;;19.70;99.90;;;;;;4242469;27;20070;-72
2021/06/22 03:41:44;;;;;;;13.68;8.77;;;19.60;99.90;;;;;;4246025;27;20074;-72
2021/06/22 03:43:47;;;;;;;12.18;8.13;;;19.50;99.90;;;;;;4246034;27;20428;-72
2021/06/22 03:45:52;;;;;;;10.98;7.95;;;19.50;99.90;;;;;;4248025;27;20112;-73
2021/06/22 03:47:55;;;;;;;12.30;8.02;;;19.60;99.90;;;;;;4248446;27;20047;-73
2021/06/22 03:49:59;;;;;;;9.90;7.28;;;19.70;99.90;;;;;;4239491;27;20084;-73
2021/06/22 03:52:03;;;;;;;11.55;6.95;;;19.80;99.90;;;;;;4247358;27;20508;-72
2021/06/22 03:54:06;;;;;;;10.20;7.07;;;19.90;99.90;;;;;;4245887;27;20051;-72
2021/06/22 03:56:10;;;;;;;11.38;6.57;;;20.00;99.90;;;;;;4246411;27;20055;-72
2021/06/22 03:58:13;;;;;;;7.57;6.82;;;20.00;99.90;;;;;;4247603;27;20055;-72
2021/06/22 04:00:17;;;;;;;13.65;8.05;;;20.10;99.90;;;;;;4246178;27;20400;-75
2021/06/22 04:02:20;;;;;;;13.38;7.38;;;20.10;99.90;;;;;;4246675;27;20090;-72
2021/06/22 04:04:23;;;;;;;8.88;7.30;;;20.30;99.90;;;;;;4246127;27;20047;-73
2021/06/22 04:06:28;;;;;;;8.50;6.90;;;20.20;99.90;;;;;;4246292;27;20108;-73
2021/06/22 04:08:31;;;;;;;10.60;6.00;;;20.10;99.90;;;;;;4245303;27;20047;-73
2021/06/22 04:10:34;;;;;;;12.23;6.95;;;20.10;99.90;;;;;;4245658;27;20075;-72
2021/06/22 04:12:37;;;;;;;9.93;7.15;;;20.10;99.90;;;;;;4246214;27;20055;-72
2021/06/22 04:14:40;;;;;;;12.43;6.90;;;20.10;99.90;;;;;;4246149;27;20124;-73
2021/06/22 04:16:43;;;;;;;12.63;6.82;;;20.00;99.90;;;;;;4245886;27;20059;-73
2021/06/22 04:18:46;;;;;;;12.43;7.20;;;19.90;99.90;;;;;;4245777;27;20074;-72
2021/06/22 04:20:49;;;;;;;14.02;6.90;;;19.90;99.90;;;;;;4245732;27;20432;-73
2021/06/22 04:22:54;;;;;;;11.85;6.85;;;20.00;99.90;;;;;;4228916;28;20058;-73
2021/06/22 04:24:57;;;;;;;13.02;7.15;;;20.20;99.90;;;;;;4236916;27;20055;-73
2021/06/22 04:27:00;;;;;;;13.82;7.90;;;20.00;99.90;;;;;;4245684;27;20476;-73
2021/06/22 04:29:03;;;;;;;9.68;6.72;;;20.00;99.90;;;;;;4245552;27;20059;-73
2021/06/22 04:31:07;;;;;;;8.38;6.53;;;20.00;99.90;;;;;;4245610;27;20475;-73
2021/06/22 04:33:10;;;;;;;11.10;7.30;;;20.10;99.90;;;;;;4245348;27;20051;-72
2021/06/22 04:35:14;;;;;;;13.20;7.45;;;20.10;99.90;;;;;;4245757;27;20055;-71
2021/06/22 04:37:17;;;;;;;11.48;7.15;;;20.10;99.90;;;;;;4245563;27;20112;-72
2021/06/22 04:39:21;;;;;;;17.25;9.00;;;20.00;99.90;;;;;;4245627;27;20099;-73
2021/06/22 04:41:24;;;;;;;20.10;8.60;;;19.90;99.90;;;;;;4245162;27;20063;-73
2021/06/22 04:43:27;;;;;;;15.73;7.93;;;20.00;99.90;;;;;;4245570;27;20076;-72
2021/06/22 04:45:31;;;;;;;9.10;8.20;;;20.20;99.90;;;;;;4245385;27;20043;-73
2021/06/22 04:47:35;;;;;;;11.73;7.85;;;20.10;99.90;;;;;;4245370;27;20055;-72
2021/06/22 04:49:38;;;;;;;10.63;7.80;;;20.10;99.90;;;;;;4227635;28;20056;-72
2021/06/22 04:51:41;;;;;;;12.63;8.20;;;20.40;99.90;;;;;;4245238;27;20051;-73
2021/06/22 04:53:44;;;;;;;10.50;8.63;;;20.30;99.90;;;;;;4245488;27;20047;-74
2021/06/22 04:55:49;;;;;;;14.23;9.48;;;20.40;99.90;;;;;;4245284;27;20047;-73
2021/06/22 04:57:56;;;;;;;15.40;9.15;;;20.40;99.90;;;;;;4245457;27;20048;-72
2021/06/22 04:59:59;;;;;;;11.00;8.98;;;20.50;99.90;;;;;;4230406;28;20056;-74
2021/06/22 05:02:03;;;;;;;12.18;9.60;;;20.40;99.90;;;;;;4246985;27;20531;-72
2021/06/22 05:04:06;;;;;;;14.20;9.43;;;20.40;99.90;;;;;;4249521;27;20070;-72
2021/06/22 05:06:11;;;;;;;12.23;9.05;;;20.40;99.90;;;;;;4247173;27;20058;-73
2021/06/22 05:08:14;;;;;;;12.43;9.48;;;20.30;99.90;;;;;;4227271;28;20055;-73
2021/06/22 05:10:17;;;;;;;15.63;9.40;;;20.30;99.90;;;;;;4245827;28;20047;-74
2021/06/22 05:12:22;;;;;;;16.92;9.20;;;20.40;99.90;;;;;;4245611;27;20507;-73
2021/06/22 05:14:25;;;;;;;14.13;8.90;;;20.40;99.90;;;;;;4245767;27;20447;-73
2021/06/22 05:16:28;;;;;;;18.67;10.30;;;20.40;99.90;;;;;;4245483;27;20112;-75
2021/06/22 05:18:31;;;;;;;12.88;9.07;;;20.30;99.90;;;;;;4245328;27;20085;-73
2021/06/22 05:20:34;;;;;;;17.35;9.68;;;20.30;99.90;;;;;;4246573;27;20055;-73
2021/06/22 05:22:37;;;;;;;17.35;9.18;;;20.30;99.90;;;;;;4230111;28;20051;-73
2021/06/22 05:24:41;;;;;;;12.00;8.95;;;20.30;99.90;;;;;;4248467;27;20057;-73
2021/06/22 05:26:44;;;;;;;19.92;9.55;;;20.20;99.90;;;;;;4248085;27;20116;-73
2021/06/22 05:28:49;;;;;;;19.60;9.70;;;20.30;99.90;;;;;;4237350;27;20043;-73
2021/06/22 05:30:52;;;;;;;10.35;8.30;;;20.30;99.90;;;;;;4248369;27;20051;-72
2021/06/22 05:32:55;;;;;;;13.30;9.60;;;20.40;99.90;;;;;;4248291;27;20047;-73
2021/06/22 05:34:58;;;;;;;14.13;9.40;;;20.30;99.90;;;;;;4248587;27;20047;-73
2021/06/22 05:37:02;;;;;;;15.25;8.73;;;20.30;99.90;;;;;;4248271;27;20593;-73
2021/06/22 05:39:05;;;;;;;13.27;7.95;;;20.30;99.90;;;;;;4237103;27;20555;-73
2021/06/22 05:41:11;;;;;;;14.80;8.20;;;20.50;99.90;;;;;;4248496;27;20468;-72
2021/06/22 05:43:14;;;;;;;14.73;9.00;;;20.50;99.90;;;;;;4247712;27;20051;-73
2021/06/22 05:45:19;;;;;;;13.50;8.75;;;20.60;99.90;;;;;;4248208;27;20051;-73
2021/06/22 05:47:23;;;;;;;16.00;7.28;;;20.60;99.90;;;;;;4247927;27;20108;-73
2021/06/22 05:49:26;;;;;;;21.85;7.88;;;20.60;99.90;;;;;;4236737;27;20047;-73
2021/06/22 05:51:29;;;;;;;14.30;7.57;;;20.60;99.90;;;;;;4247912;27;20174;-73
2021/06/22 05:53:32;;;;;;;16.35;8.07;;;20.60;99.90;;;;;;4247542;27;20059;-73
2021/06/22 05:55:35;;;;;;;23.02;8.23;;;20.50;99.90;;;;;;4248096;27;20522;-73
2021/06/22 05:57:38;;;;;;;17.50;8.60;;;20.60;99.90;;;;;;4248012;27;20047;-73
2021/06/22 05:59:41;;;;;;;14.93;8.30;;;20.60;99.90;;;;;;4248157;27;20051;-73
2021/06/22 06:01:45;;;;;;;16.35;7.68;;;20.60;99.90;;;;;;4249159;27;20047;-72
2021/06/22 06:03:48;;;;;;;11.15;7.88;;;20.60;99.90;;;;;;4250560;27;20066;-73
2021/06/22 06:05:51;;;;;;;10.82;7.47;;;20.60;99.90;;;;;;4233132;28;20061;-73
2021/06/22 06:07:54;;;;;;;15.30;8.32;;;20.70;99.90;;;;;;4250590;27;20052;-73
2021/06/22 06:09:57;;;;;;;11.27;7.68;;;20.50;99.90;;;;;;4250609;27;20043;-73
2021/06/22 06:12:00;;;;;;;16.85;8.00;;;20.60;99.90;;;;;;4248373;27;20415;-73
2021/06/22 06:14:04;;;;;;;18.05;8.25;;;20.60;99.90;;;;;;4248039;27;20570;-73
2021/06/22 06:16:07;;;;;;;16.75;8.20;;;20.60;99.90;;;;;;4248695;27;20453;-73
2021/06/22 06:18:12;;;;;;;12.55;7.60;;;20.60;99.90;;;;;;4248605;27;20147;-73
2021/06/22 06:20:16;;;;;;;20.23;8.35;;;20.80;99.90;;;;;;4247914;27;20055;-73
2021/06/22 06:22:19;;;;;;;13.43;8.32;;;20.70;99.90;;;;;;4229904;28;20470;-72
2021/06/22 06:24:22;;;;;;;13.73;9.10;;;20.90;99.90;;;;;;4247356;27;20075;-72
2021/06/22 06:26:27;;;;;;;13.10;9.20;;;20.90;99.90;;;;;;4247782;27;20055;-73
2021/06/22 06:28:37;;;;;;;18.20;9.75;;;20.90;99.90;;;;;;4247619;27;20051;-75
2021/06/22 06:30:40;;;;;;;11.15;9.65;;;20.70;99.90;;;;;;4247629;27;20625;-73
2021/06/22 06:32:43;;;;;;;19.67;9.07;;;20.50;99.90;;;;;;4246886;27;20065;-73
2021/06/22 06:34:48;;;;;;;16.40;9.80;;;20.60;99.90;;;;;;4247238;27;20047;-73
2021/06/22 06:36:51;;;;;;;18.05;9.48;;;20.60;99.90;;;;;;4247227;27;20050;-73
2021/06/22 06:38:54;;;;;;;16.05;9.93;;;20.50;99.90;;;;;;4247430;27;20043;-74
2021/06/22 06:40:57;;;;;;;15.77;9.23;;;20.60;99.90;;;;;;4247075;27;20080;-71
2021/06/22 06:43:00;;;;;;;17.65;9.57;;;20.50;99.90;;;;;;4247251;27;20499;-72
2021/06/22 06:45:05;;;;;;;14.60;9.35;;;20.30;99.90;;;;;;4247097;27;20167;-73
2021/06/22 06:47:08;;;;;;;15.27;9.10;;;20.40;99.90;;;;;;4247330;27;20050;-72
2021/06/22 06:49:13;;;;;;;16.95;8.73;;;20.20;99.90;;;;;;4246963;27;20427;-72
2021/06/22 06:51:18;;;;;;;17.15;9.43;;;20.30;99.90;;;;;;4246988;27;20101;-74
2021/06/22 06:53:21;;;;;;;15.05;9.60;;;20.20;99.90;;;;;;4246870;27;20449;-72
2021/06/22 06:55:35;;;;;;;15.48;10.35;;;20.10;99.90;;;;;;4247067;27;20062;-73
2021/06/22 06:57:38;;;;;;;21.40;10.07;;;20.00;99.90;;;;;;4247160;27;20100;-74
2021/06/22 06:59:41;;;;;;;19.30;9.20;;;20.00;99.90;;;;;;4246869;27;20649;-73
2021/06/22 07:01:44;;;;;;;22.83;9.32;;;20.00;99.90;;;;;;4247302;27;20054;-72
2021/06/22 07:03:47;;;;;;;24.88;9.48;;;20.00;99.90;;;;;;4247021;27;20051;-73
2021/06/22 07:05:50;;;;;;;19.60;9.25;;;20.00;99.90;;;;;;4246731;27;20104;-72
2021/06/22 07:07:56;;;;;;;13.67;9.73;;;20.10;99.90;;;;;;4247276;27;20055;-74
2021/06/22 07:09:59;;;;;;;16.52;9.23;;;20.10;99.90;;;;;;4246314;27;20050;-72
2021/06/22 07:12:02;;;;;;;16.60;9.38;;;20.00;99.90;;;;;;4246802;27;20407;-72
2021/06/22 07:14:05;;;;;;;15.30;9.48;;;20.00;99.90;;;;;;4246988;27;20149;-72
2021/06/22 07:16:08;;;;;;;17.13;9.88;;;20.00;99.90;;;;;;4246512;27;20125;-73
2021/06/22 07:18:11;;;;;;;14.30;9.88;;;19.90;99.90;;;;;;4246715;27;20105;-72
2021/06/22 07:20:16;;;;;;;;;;;20.00;99.90;;;;;;4247026;27;20043;-72
2021/06/22 07:22:19;;;;;;;15.00;9.90;;;19.70;99.90;;;;;;4246729;27;20451;-72
2021/06/22 07:24:23;;;;;;;13.82;10.18;;;19.80;99.90;;;;;;4247735;27;20661;-72
2021/06/22 07:26:26;;;;;;;20.50;9.73;;;19.70;99.90;;;;;;4248698;27;20051;-72
2021/06/22 07:28:29;;;;;;;15.82;9.80;;;19.70;99.90;;;;;;4248985;27;20055;-72
2021/06/22 07:30:32;;;;;;;20.33;11.38;;;19.90;99.90;;;;;;4247166;27;20120;-72
2021/06/22 07:32:35;;;;;;;19.20;10.38;;;19.90;99.90;;;;;;4246421;27;20047;-74
2021/06/22 07:34:39;;;;;;;20.80;11.00;;;19.90;99.90;;;;;;4247769;27;20647;-73
2021/06/22 07:36:42;;;;;;;13.35;11.02;;;19.70;99.90;;;;;;4246180;27;20051;-73
2021/06/22 07:38:45;;;;;;;18.42;10.30;;;19.90;99.90;;;;;;4246091;27;20081;-73
2021/06/22 07:40:50;;;;;;;16.65;10.55;;;19.90;99.90;;;;;;4246242;27;20057;-73
2021/06/22 07:42:53;;;;;;;21.38;11.13;;;19.70;99.90;;;;;;4246134;27;20059;-74
2021/06/22 07:44:56;;;;;;;20.83;10.88;;;19.90;99.90;;;;;;4246307;27;20053;-74
2021/06/22 07:46:59;;;;;;;22.48;11.85;;;19.90;99.90;;;;;;4245739;27;20059;-74
2021/06/22 07:49:02;;;;;;;17.23;12.05;;;19.80;99.90;;;;;;4241992;27;20052;-74
2021/06/22 07:51:05;;;;;;;22.42;12.80;;;19.80;99.90;;;;;;4230682;27;20477;-74
2021/06/22 07:53:09;;;;;;;22.65;12.00;;;19.90;99.90;;;;;;4242315;27;20157;-72
2021/06/22 07:55:15;;;;;;;19.77;13.60;;;19.80;99.90;;;;;;4245670;27;20047;-72
2021/06/22 07:57:20;;;;;;;20.85;13.77;;;19.70;99.90;;;;;;4245463;27;20047;-72
2021/06/22 07:59:23;;;;;;;26.63;13.13;;;19.60;99.90;;;;;;4246526;27;20058;-72
2021/06/22 08:01:26;;;;;;;22.13;13.85;;;19.70;99.90;;;;;;4246191;27;20077;-72
2021/06/22 08:03:29;;;;;;;24.40;13.75;;;19.80;99.90;;;;;;4242062;27;20403;-72
2021/06/22 08:05:32;;;;;;;22.60;14.50;;;19.90;99.90;;;;;;4245596;27;20055;-72
2021/06/22 08:07:35;;;;;;;24.40;14.57;;;19.70;99.90;;;;;;4245542;27;20419;-71
2021/06/22 08:09:38;;;;;;;29.40;14.55;;;19.90;99.90;;;;;;4227137;28;20056;-72
2021/06/22 08:11:41;;;;;;;40.35;15.23;;;19.80;99.90;;;;;;4242660;27;20047;-73
2021/06/22 08:13:46;;;;;;;30.42;16.58;;;20.00;99.90;;;;;;4240638;27;20522;-71
2021/06/22 08:15:49;;;;;;;38.58;15.70;;;19.80;99.90;;;;;;4245485;27;20137;-72
2021/06/22 08:17:52;;;;;;;22.98;16.25;;;19.90;99.90;;;;;;4245449;27;20058;-72
2021/06/22 08:19:56;;;;;;;25.25;16.98;;;19.90;99.90;;;;;;4245891;27;20492;-73
2021/06/22 08:22:02;;;;;;;33.35;17.63;;;19.90;99.90;;;;;;4245645;27;20419;-73
2021/06/22 08:24:06;;;;;;;27.17;17.15;;;19.80;99.90;;;;;;4245594;27;20146;-71
2021/06/22 08:26:10;;;;;;;30.38;16.75;;;19.90;99.90;;;;;;4245942;27;20055;-73
2021/06/22 08:28:14;;;;;;;25.15;17.15;;;20.00;99.90;;;;;;4246250;27;20140;-71
2021/06/22 08:30:22;;;;;;;30.27;16.67;;;19.90;99.90;;;;;;4246111;27;20574;-71
2021/06/22 08:32:25;;;;;;;24.42;18.20;;;19.90;99.90;;;;;;4254703;27;20055;-72
2021/06/22 08:34:29;;;;;;;28.67;16.92;;;20.00;99.90;;;;;;4254765;27;20051;-72
2021/06/22 08:36:32;;;;;;;25.85;16.55;;;20.00;99.90;;;;;;4253515;27;20507;-72
2021/06/22 08:38:35;;;;;;;36.70;17.35;;;19.90;99.90;;;;;;4232908;28;20135;-72
2021/06/22 08:40:40;;;;;;;24.65;17.40;;;20.00;99.90;;;;;;4247742;27;20274;-73
2021/06/22 08:42:43;;;;;;;29.67;17.55;;;19.90;99.90;;;;;;4248019;27;20147;-72
2021/06/22 08:44:48;;;;;;;26.85;18.08;;;20.00;99.90;;;;;;4247546;27;20059;-72
2021/06/22 08:46:53;;;;;;;;;;;19.90;99.90;;;;;;4247238;27;20074;-70
2021/06/22 08:48:59;;;;;;;37.65;22.17;;;19.80;99.90;;;;;;4245829;27;19972;-72
2021/06/22 08:51:13;;;;;;;32.47;21.30;;;19.50;99.90;;;;;;4248760;27;20062;-71
2021/06/22 08:53:17;;;;;;;35.20;24.58;;;19.50;99.90;;;;;;4249131;27;20103;-72
2021/06/22 08:55:26;;;;;;;34.15;26.50;;;19.10;99.90;;;;;;4249546;27;20055;-73
2021/06/22 08:57:30;;;;;;;41.67;30.90;;;18.90;99.90;;;;;;4250351;27;20090;-74
2021/06/22 08:59:33;;;;;;;31.42;26.88;;;18.70;99.90;;;;;;4249472;27;20142;-72
2021/06/22 09:01:36;;;;;;;37.97;27.38;;;18.80;99.90;;;;;;4249223;27;20055;-72
2021/06/22 09:03:41;;;;;;;33.58;28.27;;;18.80;99.90;;;;;;4248824;27;20047;-72
2021/06/22 09:05:47;;;;;;;38.08;28.77;;;18.90;99.90;;;;;;4248639;27;20047;-71
2021/06/22 09:07:53;;;;;;;38.58;28.83;;;18.80;99.90;;;;;;4249158;27;20108;-74
2021/06/22 09:09:56;;;;;;;31.95;28.20;;;18.80;99.90;;;;;;4248394;27;20047;-72
2021/06/22 09:12:06;;;;;;;35.00;28.85;;;18.90;99.90;;;;;;4248689;27;20047;-71
2021/06/22 09:14:10;;;;;;;36.08;27.33;;;18.80;99.90;;;;;;4248333;27;20078;-72
2021/06/22 09:16:15;;;;;;;35.72;27.92;;;18.90;99.90;;;;;;4248468;27;20051;-71
2021/06/22 09:18:27;;;;;;;34.80;26.20;;;18.80;99.90;;;;;;4248845;27;20078;-71
2021/06/22 09:20:35;;;;;;;33.30;25.67;;;18.80;99.90;;;;;;4248208;27;20047;-71
2021/06/22 09:22:38;;;;;;;35.15;26.27;;;18.70;99.90;;;;;;4248459;27;20051;-72
2021/06/22 09:24:59;;;;;;;31.27;25.08;;;18.70;99.90;;;;;;4248319;27;20091;-72
2021/06/22 09:27:03;;;;;;;30.25;25.38;;;18.70;99.90;;;;;;4248383;27;20061;-70
2021/06/22 09:29:09;;;;;;;34.83;25.95;;;18.60;99.90;;;;;;4248328;27;20504;-71
2021/06/22 09:31:13;;;;;;;37.60;27.75;;;18.60;99.90;;;;;;4248099;27;20051;-70
2021/06/22 09:33:23;;;;;;;32.35;26.23;;;18.70;99.90;;;;;;4248404;27;20096;-71
2021/06/22 09:35:26;;;;;;;34.25;25.92;;;18.80;99.90;;;;;;4248322;27;20074;-71
2021/06/22 09:37:48;;;;;;;31.73;26.35;;;18.90;99.90;;;;;;4248389;27;20126;-72
2021/06/22 09:39:51;;;;;;;31.52;24.65;;;19.00;99.90;;;;;;4248427;27;20068;-72
2021/06/22 09:41:56;;;;;;;28.17;25.08;;;18.90;99.90;;;;;;4248211;27;20047;-71
2021/06/22 09:44:01;;;;;;;30.33;22.50;;;18.90;99.90;;;;;;4248232;27;20054;-72
2021/06/22 09:46:06;;;;;;;;;;;19.00;99.90;;;;;;4230719;28;20051;-72
2021/06/22 09:48:10;;;;;;;27.63;23.52;;;18.90;99.90;;;;;;4248469;27;20033;-74
2021/06/22 09:50:38;;;;;;;35.55;25.58;;;18.90;99.90;;;;;;4247719;27;20059;-75
2021/06/22 09:52:42;;;;;;;31.05;24.42;;;18.90;99.90;;;;;;4238244;27;20054;-72
2021/06/22 09:54:47;;;;;;;31.52;23.08;;;18.80;99.90;;;;;;4248640;27;20058;-72
2021/06/22 09:56:56;;;;;;;27.63;21.73;;;18.80;99.90;;;;;;4247984;27;20126;-72
2021/06/22 09:59:06;;;;;;;28.17;22.33;;;18.60;99.90;;;;;;4247906;27;20054;-73
2021/06/22 10:01:33;;;;;;;26.42;22.30;;;18.60;99.90;;;;;;4248234;27;20135;-72
2021/06/22 10:03:37;;;;;;;25.33;19.25;;;18.70;99.90;;;;;;4245773;27;20070;-71
2021/06/22 10:05:52;;;;;;;24.88;19.38;;;18.50;99.90;;;;;;4249495;27;20074;-72
2021/06/22 10:07:59;;;;;;;21.95;16.85;;;18.60;99.90;;;;;;4229342;28;20486;-71
2021/06/22 10:10:05;;;;;;;17.20;15.38;;;18.60;99.90;;;;;;4246432;27;20051;-72
2021/06/22 10:12:10;;;;;;;19.80;15.55;;;18.40;99.90;;;;;;4248009;27;20047;-73
2021/06/22 10:14:24;;;;;;;17.13;14.35;;;18.50;99.90;;;;;;4247951;27;20043;-73
2021/06/22 10:16:32;;;;;;;17.13;14.75;;;18.50;99.90;;;;;;4247218;27;20126;-71
2021/06/22 10:18:36;;;;;;;15.38;13.85;;;18.60;99.90;;;;;;4229425;28;20048;-71
2021/06/22 10:20:40;;;;;;;19.87;15.43;;;18.50;99.90;;;;;;4247121;27;20123;-70
2021/06/22 10:22:46;;;;;;;16.38;14.30;;;18.60;99.90;;;;;;4247152;27;21018;-70
2021/06/22 10:24:51;;;;;;;18.65;15.75;;;18.70;99.90;;;;;;4247162;27;20055;-71
2021/06/22 10:26:58;;;;;;;17.50;15.00;;;18.80;99.90;;;;;;4247203;27;20055;-70
2021/06/22 10:29:02;;;;;;;24.08;16.75;;;18.80;99.90;;;;;;4247074;27;20055;-70
2021/06/22 10:31:06;;;;;;;22.42;15.73;;;18.80;99.90;;;;;;4246934;27;20051;-72
2021/06/22 10:33:09;;;;;;;18.40;14.90;;;18.90;99.90;;;;;;4247397;27;20108;-71
2021/06/22 10:35:14;;;;;;;16.10;13.57;;;18.90;99.90;;;;;;4247477;27;20054;-71
2021/06/22 10:37:22;;;;;;;16.27;13.27;;;18.90;99.90;;;;;;4247286;27;20055;-70
2021/06/22 10:39:30;;;;;;;17.00;11.45;;;19.00;99.90;;;;;;4247542;27;20203;-70